Time;durP1;ratioP1;P1;durP2;ratioP2;P2;SDS_P1;SDS_P2;PMS_P1;PMS_P2;Temp;Humidity;BMP_temperature;BMP_pressure;BME280_temperature;BME280_humidity;BME280_pressure;Samples;Min_cycle;Max_cycle;Signal;HPM_P1;HPM_P2
2023/06/16 00:01:57;;;;;;;;;;;;;;;27.86;40.17;101915.22;5069744;28;19921;-73
2023/06/16 00:04:25;;;;;;;;;;;;;;;27.84;40.32;101907.22;5041897;28;19917;-72
2023/06/16 00:06:52;;;;;;;;;;;;;;;27.84;40.27;101909.97;5068713;28;19913;-73
2023/06/16 00:09:21;;;;;;;;;;;;;;;27.82;40.21;101912.03;5063997;28;19913;-72
2023/06/16 00:11:46;;;;;;;;;;;;;;;27.82;40.04;101912.03;5064752;28;19917;-73
2023/06/16 00:14:12;;;;;;;;;;;;;;;27.82;40.36;101912.03;5044802;28;19956;-73
2023/06/16 00:16:37;;;;;;;;;;;;;;;27.80;40.15;101914.16;5070482;28;19920;-73
2023/06/16 00:19:02;;;;;;;;;;;;;;;27.80;40.02;101911.41;5058531;28;19917;-73
2023/06/16 00:21:29;;;;;;;;;;;;;;;27.79;40.09;101907.00;5069698;28;19916;-72
2023/06/16 00:23:55;;;;;;;;;;;;;;;27.78;40.25;101899.84;5048600;28;19916;-72
2023/06/16 00:26:20;;;;;;;;;;;;;;;27.78;40.05;101899.84;5058977;28;19920;-72
2023/06/16 00:28:45;;;;;;;;;;;;;;;27.78;40.04;101904.44;5072525;28;20397;-73
2023/06/16 00:31:11;;;;;;;;;;;;;;;27.76;40.06;101901.94;5058627;28;20286;-72
2023/06/16 00:33:36;;;;;;;;;;;;;;;27.75;40.21;101899.41;5066131;28;19916;-74
2023/06/16 00:36:01;;;;;;;;;;;;;;;27.74;40.13;101897.72;5064755;28;20368;-72
2023/06/16 00:38:27;;;;;;;;;;;;;;;27.74;40.13;101903.16;5052391;28;19947;-73
2023/06/16 00:40:52;;;;;;;;;;;;;;;27.72;39.97;101895.16;5044158;28;20001;-73
2023/06/16 00:43:17;;;;;;;;;;;;;;;27.72;40.03;101894.31;5068742;28;19921;-73
2023/06/16 00:45:43;;;;;;;;;;;;;;;27.71;39.92;101892.63;5060847;28;19921;-73
2023/06/16 00:48:08;;;;;;;;;;;;;;;27.69;39.98;101895.56;5046724;28;19913;-73
2023/06/16 00:50:33;;;;;;;;;;;;;;;27.70;40.11;101904.59;5069844;28;20365;-72
2023/06/16 00:52:58;;;;;;;;;;;;;;;27.68;39.79;101902.06;5053287;28;19976;-73
2023/06/16 00:55:23;;;;;;;;;;;;;;;27.68;39.93;101902.06;5057862;28;19913;-72
2023/06/16 00:57:53;;;;;;;;;;;;;;;27.67;39.78;101893.03;5036339;28;19959;-73
2023/06/16 01:00:19;;;;;;;;;;;;;;;27.66;39.96;101894.09;5064912;28;19913;-73
2023/06/16 01:02:47;;;;;;;;;;;;;;;27.66;39.91;101885.06;5068536;28;20384;-72
2023/06/16 01:05:12;;;;;;;;;;;;;;;27.65;39.86;101886.09;5063130;28;19988;-72
2023/06/16 01:07:52;;;;;;;;;;;;;;;27.64;39.59;101898.06;5062418;28;19913;-72
2023/06/16 01:10:19;;;;;;;;;;;;;;;27.64;39.82;101896.16;5066363;28;19913;-73
2023/06/16 01:13:07;;;;;;;;;;;;;;;27.64;39.76;101898.06;5051054;28;19917;-72
2023/06/16 01:15:32;;;;;;;;;;;;;;;27.62;39.51;101887.34;5049563;28;19967;-73
2023/06/16 01:17:59;;;;;;;;;;;;;;;27.63;39.69;101896.38;5065828;28;19963;-73
2023/06/16 01:20:43;;;;;;;;;;;;;;;27.61;39.46;101891.13;5047319;28;19996;-73
2023/06/16 01:23:17;;;;;;;;;;;;;;;27.60;39.69;101889.44;5075084;28;19917;-73
2023/06/16 01:25:44;;;;;;;;;;;;;;;27.60;39.72;101883.13;5039234;28;19991;-72
2023/06/16 01:28:12;;;;;;;;;;;;;;;27.60;39.59;101883.13;5067964;28;19920;-73
2023/06/16 01:30:42;;;;;;;;;;;;;;;27.59;39.55;101889.63;5047222;28;19917;-73
2023/06/16 01:33:08;;;;;;;;;;;;;;;27.59;39.13;101890.47;5045784;28;19920;-73
2023/06/16 01:35:33;;;;;;;;;;;;;;;27.59;39.56;101889.63;5047434;28;19924;-73
2023/06/16 01:37:58;;;;;;;;;;;;;;;27.58;39.22;101887.97;5047577;28;19913;-73
2023/06/16 01:40:23;;;;;;;;;;;;;;;27.57;39.49;101888.97;5058996;28;20435;-73
2023/06/16 01:42:49;;;;;;;;;;;;;;;27.57;39.45;101891.72;5035136;28;19920;-73
2023/06/16 01:45:14;;;;;;;;;;;;;;;27.56;39.27;101890.88;5066736;28;19928;-72
2023/06/16 01:47:40;;;;;;;;;;;;;;;27.56;39.21;101888.16;5050872;28;19919;-72
2023/06/16 01:50:05;;;;;;;;;;;;;;;27.53;39.16;101882.28;5054980;28;19914;-72
2023/06/16 01:52:30;;;;;;;;;;;;;;;27.54;39.25;101890.25;5041387;28;19924;-73
2023/06/16 01:54:55;;;;;;;;;;;;;;;27.53;39.08;101879.53;5046092;28;19913;-72
2023/06/16 01:57:21;;;;;;;;;;;;;;;27.51;39.40;101885.19;5067202;28;19948;-72
2023/06/16 01:59:47;;;;;;;;;;;;;;;27.51;39.36;101882.44;5059745;28;19916;-73
2023/06/16 02:02:16;;;;;;;;;;;;;;;27.49;39.30;101881.81;5033249;28;19971;-72
2023/06/16 02:04:42;;;;;;;;;;;;;;;27.47;39.01;101883.06;5060804;28;20416;-72
2023/06/16 02:07:09;;;;;;;;;;;;;;;27.47;39.26;101885.78;5061560;28;20296;-72
2023/06/16 02:09:35;;;;;;;;;;;;;;;27.45;39.20;101885.16;5043014;28;19919;-72
2023/06/16 02:12:01;;;;;;;;;;;;;;;27.44;39.32;101888.91;5055179;28;19928;-73
2023/06/16 02:14:27;;;;;;;;;;;;;;;27.42;39.24;101886.41;5036548;28;20008;-73
2023/06/16 02:16:52;;;;;;;;;;;;;;;27.41;39.36;101885.56;5072511;28;19936;-73
2023/06/16 02:19:18;;;;;;;;;;;;;;;27.40;38.99;101891.25;5061670;28;19920;-71
2023/06/16 02:21:43;;;;;;;;;;;;;;;27.38;39.16;101885.97;5051301;28;19920;-72
2023/06/16 02:24:08;;;;;;;;;;;;;;;27.37;38.98;101889.75;5068489;28;19917;-73
2023/06/16 02:26:34;;;;;;;;;;;;;;;27.37;38.91;101888.91;5057824;28;19920;-72
2023/06/16 02:28:59;;;;;;;;;;;;;;;27.36;39.10;101889.97;5066115;28;20350;-73
2023/06/16 02:31:24;;;;;;;;;;;;;;;27.36;39.01;101888.06;5044101;28;19917;-72
2023/06/16 02:33:50;;;;;;;;;;;;;;;27.35;39.01;101885.50;5065148;28;19914;-73
2023/06/16 02:36:16;;;;;;;;;;;;;;;27.33;39.18;101883.00;5059723;28;19959;-73
2023/06/16 02:38:41;;;;;;;;;;;;;;;27.33;38.93;101888.47;5070029;28;19913;-73
2023/06/16 02:41:06;;;;;;;;;;;;;;;27.33;39.09;101895.81;5060770;28;19932;-73
2023/06/16 02:43:32;;;;;;;;;;;;;;;27.32;38.87;101897.69;5069791;28;19980;-73
2023/06/16 02:45:57;;;;;;;;;;;;;;;27.31;38.66;101896.00;5069324;28;19920;-72
2023/06/16 02:48:22;;;;;;;;;;;;;;;27.30;38.84;101888.84;5057172;28;19966;-72
2023/06/16 02:50:47;;;;;;;;;;;;;;;27.30;38.94;101891.59;5076495;28;19913;-72
2023/06/16 02:53:13;;;;;;;;;;;;;;;27.30;38.74;101891.59;5060935;28;19936;-73
2023/06/16 02:55:38;;;;;;;;;;;;;;;27.29;38.79;101889.06;5065688;28;19920;-73
2023/06/16 02:58:04;;;;;;;;;;;;;;;27.28;38.70;101885.50;5068879;28;19952;-73
2023/06/16 03:00:29;;;;;;;;;;;;;;;27.29;38.73;101886.34;5065912;28;19912;-73
2023/06/16 03:02:54;;;;;;;;;;;;;;;27.27;38.85;101886.53;5065332;28;19932;-73
2023/06/16 03:05:21;;;;;;;;;;;;;;;27.27;38.78;101883.81;5069020;28;19978;-72
2023/06/16 03:07:46;;;;;;;;;;;;;;;27.27;38.70;101886.53;5065110;28;19916;-72
2023/06/16 03:10:11;;;;;;;;;;;;;;;27.26;38.70;101887.56;5062856;28;19920;-73
2023/06/16 03:12:37;;;;;;;;;;;;;;;27.26;38.42;101887.56;5070548;28;19960;-72
2023/06/16 03:15:02;;;;;;;;;;;;;;;27.25;38.69;101891.34;5055585;28;19952;-72
2023/06/16 03:17:27;;;;;;;;;;;;;;;27.25;38.52;101891.34;5056573;28;19920;-72
2023/06/16 03:19:52;;;;;;;;;;;;;;;27.25;38.58;101888.63;5064187;28;19921;-72
2023/06/16 03:22:18;;;;;;;;;;;;;;;27.24;38.57;101892.41;5061519;28;19928;-72
2023/06/16 03:24:43;;;;;;;;;;;;;;;27.24;38.56;101886.09;5072531;28;19967;-73
2023/06/16 03:27:09;;;;;;;;;;;;;;;27.24;38.63;101891.56;5064163;28;19919;-72
2023/06/16 03:29:34;;;;;;;;;;;;;;;27.22;38.43;101889.00;5063099;28;19973;-73
2023/06/16 03:32:00;;;;;;;;;;;;;;;27.21;38.70;101889.22;5066324;28;19984;-73
2023/06/16 03:34:25;;;;;;;;;;;;;;;27.21;38.52;101889.22;5067948;28;19917;-72
2023/06/16 03:36:50;;;;;;;;;;;;;;;27.20;38.44;101888.38;5060131;28;19917;-73
2023/06/16 03:39:15;;;;;;;;;;;;;;;27.19;38.52;101889.44;5072133;28;19916;-73
2023/06/16 03:41:41;;;;;;;;;;;;;;;27.19;38.42;101892.16;5062361;28;19921;-73
2023/06/16 03:44:06;;;;;;;;;;;;;;;27.19;38.41;101885.84;5067298;28;19971;-73
2023/06/16 03:46:31;;;;;;;;;;;;;;;27.17;38.42;101877.84;5066822;28;19917;-73
2023/06/16 03:48:57;;;;;;;;;;;;;;;27.17;38.66;101878.69;5058014;28;19916;-73
2023/06/16 03:51:24;;;;;;;;;;;;;;;27.16;38.62;101876.19;5070882;28;19916;-73
2023/06/16 03:53:49;;;;;;;;;;;;;;;27.15;38.37;101875.34;5059495;28;19913;-73
2023/06/16 03:56:14;;;;;;;;;;;;;;;27.15;38.52;101877.22;5063034;28;19913;-72
2023/06/16 03:58:39;;;;;;;;;;;;;;;27.14;38.45;101875.50;5068286;28;19955;-73
2023/06/16 04:01:05;;;;;;;;;;;;;;;27.13;38.37;101880.13;5067678;28;19923;-73
2023/06/16 04:03:30;;;;;;;;;;;;;;;27.12;38.59;101875.72;5062131;28;19913;-73
2023/06/16 04:05:55;;;;;;;;;;;;;;;27.12;38.41;101883.91;5070340;28;19917;-73
2023/06/16 04:08:20;;;;;;;;;;;;;;;27.12;38.50;101883.06;5063454;28;19936;-73
2023/06/16 04:10:45;;;;;;;;;;;;;;;27.11;38.44;101886.84;5061550;28;19923;-73
2023/06/16 04:13:11;;;;;;;;;;;;;;;27.10;38.39;101886.03;5070013;28;19918;-72
2023/06/16 04:15:36;;;;;;;;;;;;;;;27.10;38.52;101891.47;5058480;28;19993;-73
2023/06/16 04:18:01;;;;;;;;;;;;;;;27.09;38.58;101884.31;5071617;28;19943;-72
2023/06/16 04:20:26;;;;;;;;;;;;;;;27.09;38.28;101887.03;5063406;28;19905;-74
2023/06/16 04:22:51;;;;;;;;;;;;;;;27.08;38.54;101887.22;5044464;28;19913;-74
2023/06/16 04:25:17;;;;;;;;;;;;;;;27.08;38.24;101885.31;5069126;28;19921;-71
2023/06/16 04:27:43;;;;;;;;;;;;;;;27.07;38.55;101894.56;5064740;28;19912;-71
2023/06/16 04:30:09;;;;;;;;;;;;;;;27.07;38.42;101888.28;5059673;28;19996;-72
2023/06/16 04:32:35;;;;;;;;;;;;;;;27.06;38.30;101881.97;5067705;28;19912;-73
2023/06/16 04:35:02;;;;;;;;;;;;;;;27.06;38.42;101881.97;5062323;28;19976;-72
2023/06/16 04:37:27;;;;;;;;;;;;;;;27.04;38.53;101886.78;5055742;28;19983;-72
2023/06/16 04:39:52;;;;;;;;;;;;;;;27.04;38.39;101883.19;5060634;28;19938;-72
2023/06/16 04:42:17;;;;;;;;;;;;;;;27.04;38.27;101881.31;5039313;28;19977;-73
2023/06/16 04:44:43;;;;;;;;;;;;;;;27.03;38.60;101886.97;5066878;28;19930;-72
2023/06/16 04:47:09;;;;;;;;;;;;;;;27.03;38.25;101881.53;5066462;28;19964;-73
2023/06/16 04:49:35;;;;;;;;;;;;;;;27.03;38.70;101881.53;5059532;28;19952;-72
2023/06/16 04:52:00;;;;;;;;;;;;;;;26.86;38.69;101862.72;5066190;28;19920;-73
2023/06/16 04:54:25;;;;;;;;;;;;;;;27.01;38.61;101876.25;5063228;28;19979;-73
2023/06/16 04:56:50;;;;;;;;;;;;;;;27.00;38.38;101880.03;5050415;28;19923;-72
2023/06/16 04:59:16;;;;;;;;;;;;;;;26.99;38.47;101881.06;5047596;28;19913;-72
2023/06/16 05:01:41;;;;;;;;;;;;;;;26.99;38.23;101875.63;5069441;28;20036;-72
2023/06/16 05:04:06;;;;;;;;;;;;;;;26.99;38.81;101877.50;5054986;28;19939;-72
2023/06/16 05:06:33;;;;;;;;;;;;;;;26.98;38.62;101873.09;5071280;28;20388;-71
2023/06/16 05:08:58;;;;;;;;;;;;;;;26.97;38.51;101877.69;5062209;28;19914;-71
2023/06/16 05:11:24;;;;;;;;;;;;;;;26.97;38.48;101868.66;5061082;28;19979;-72
2023/06/16 05:13:49;;;;;;;;;;;;;;;26.96;38.69;101873.28;5069814;28;19916;-73
2023/06/16 05:16:14;;;;;;;;;;;;;;;26.95;38.70;101877.06;5057587;28;19931;-72
2023/06/16 05:18:39;;;;;;;;;;;;;;;26.96;38.50;101877.88;5053702;28;19924;-73
2023/06/16 05:21:04;;;;;;;;;;;;;;;26.94;38.62;101883.56;5061722;28;19917;-72
2023/06/16 05:23:30;;;;;;;;;;;;;;;26.94;38.47;101883.56;5063953;28;20346;-72
2023/06/16 05:25:55;;;;;;;;;;;;;;;26.92;38.48;101883.75;5062782;28;19920;-73
2023/06/16 05:28:20;;;;;;;;;;;;;;;26.92;38.50;101881.00;5066165;28;19992;-72
2023/06/16 05:30:45;;;;;;;;;;;;;;;26.91;38.71;101886.69;5058725;28;19919;-72
2023/06/16 05:33:10;;;;;;;;;;;;;;;26.90;38.83;101883.09;5047890;28;19917;-72
2023/06/16 05:35:36;;;;;;;;;;;;;;;26.89;38.57;101881.44;5063463;28;19920;-73
2023/06/16 05:38:01;;;;;;;;;;;;;;;26.89;38.89;101878.69;5053000;28;19913;-72
2023/06/16 05:40:26;;;;;;;;;;;;;;;26.88;38.71;101885.19;5071514;28;20031;-73
2023/06/16 05:42:51;;;;;;;;;;;;;;;26.86;38.74;101876.34;5058956;28;19922;-72
2023/06/16 05:45:16;;;;;;;;;;;;;;;26.86;38.64;101881.81;5062887;28;19923;-72
2023/06/16 05:47:42;;;;;;;;;;;;;;;26.86;38.84;101880.97;5065967;28;19924;-72
2023/06/16 05:50:07;;;;;;;;;;;;;;;26.86;38.88;101883.72;5061269;28;20365;-72
2023/06/16 05:52:32;;;;;;;;;;;;;;;26.84;38.81;101878.44;5064403;28;19920;-72
2023/06/16 05:54:57;;;;;;;;;;;;;;;26.85;38.86;101882.03;5064287;28;20011;-72
2023/06/16 05:57:24;;;;;;;;;;;;;;;26.83;38.81;101882.19;5060798;28;19913;-72
2023/06/16 05:59:49;;;;;;;;;;;;;;;26.83;39.09;101884.09;5060073;28;19920;-72
2023/06/16 06:02:15;;;;;;;;;;;;;;;26.83;38.92;101886.81;5068713;28;19927;-72
2023/06/16 06:04:41;;;;;;;;;;;;;;;26.82;38.86;101887.88;5052620;28;19913;-72
2023/06/16 06:07:06;;;;;;;;;;;;;;;26.81;38.94;101889.75;5055443;28;20347;-71
2023/06/16 06:09:31;;;;;;;;;;;;;;;26.81;38.87;101892.50;5059186;28;20499;-72
2023/06/16 06:11:56;;;;;;;;;;;;;;;26.81;38.86;101883.47;5058953;28;19927;-72
2023/06/16 06:14:21;;;;;;;;;;;;;;;26.81;38.95;101889.75;5072869;28;19920;-72
2023/06/16 06:16:47;;;;;;;;;;;;;;;26.80;39.10;101893.50;5063011;28;19917;-72
2023/06/16 06:19:12;;;;;;;;;;;;;;;26.81;38.83;101895.22;5065721;28;19917;-71
2023/06/16 06:21:38;;;;;;;;;;;;;;;26.81;39.13;101895.22;5065485;28;20328;-72
2023/06/16 06:24:04;;;;;;;;;;;;;;;26.82;38.94;101902.34;5069726;28;19917;-72
2023/06/16 06:26:29;;;;;;;;;;;;;;;26.82;38.82;101896.91;5064796;28;19913;-72
2023/06/16 06:28:54;;;;;;;;;;;;;;;26.82;38.89;101905.09;5072733;28;19935;-72
2023/06/16 06:31:20;;;;;;;;;;;;;;;26.83;38.83;101905.91;5060632;28;20462;-72
2023/06/16 06:33:45;;;;;;;;;;;;;;;26.82;39.04;101901.50;5068722;28;19935;-73
2023/06/16 06:36:11;;;;;;;;;;;;;;;26.83;39.10;101908.66;5068613;28;19945;-72
2023/06/16 06:38:36;;;;;;;;;;;;;;;26.82;38.92;101912.44;5051802;28;19964;-72
2023/06/16 06:41:01;;;;;;;;;;;;;;;26.82;39.04;101916.00;5073325;28;19920;-72
2023/06/16 06:43:27;;;;;;;;;;;;;;;26.81;39.16;101917.03;5064642;28;19947;-72
2023/06/16 06:45:52;;;;;;;;;;;;;;;26.81;39.00;101916.22;5068165;28;19948;-72
2023/06/16 06:48:17;;;;;;;;;;;;;;;26.81;38.93;101921.66;5054014;28;19913;-71
2023/06/16 06:50:43;;;;;;;;;;;;;;;26.81;39.13;101924.38;5049392;28;19928;-73
2023/06/16 06:53:08;;;;;;;;;;;;;;;26.80;38.98;101923.53;5061974;28;19968;-72
2023/06/16 06:55:33;;;;;;;;;;;;;;;26.80;38.75;101922.69;5068868;28;19916;-72
2023/06/16 06:57:58;;;;;;;;;;;;;;;26.78;39.00;101927.50;5064870;28;19920;-72
2023/06/16 07:00:23;;;;;;;;;;;;;;;26.78;39.32;101930.22;5064994;28;19919;-72
2023/06/16 07:02:49;;;;;;;;;;;;;;;26.77;39.17;101920.38;5072777;28;19931;-72
2023/06/16 07:05:14;;;;;;;;;;;;;;;26.78;39.18;101924.78;5058036;28;19921;-72
2023/06/16 07:07:39;;;;;;;;;;;;;;;26.76;39.00;101927.72;5073557;28;19913;-72
2023/06/16 07:10:05;;;;;;;;;;;;;;;26.76;39.27;101927.72;5064221;28;19917;-72
2023/06/16 07:12:30;;;;;;;;;;;;;;;26.75;39.17;101925.16;5061355;28;19912;-72
2023/06/16 07:14:55;;;;;;;;;;;;;;;26.75;39.26;101934.19;5071781;28;19927;-72
2023/06/16 07:17:21;;;;;;;;;;;;;;;26.75;39.08;101928.72;5064880;28;19981;-72
2023/06/16 07:19:46;;;;;;;;;;;;;;;26.74;39.10;101931.66;5063202;28;19913;-72
2023/06/16 07:22:11;;;;;;;;;;;;;;;26.74;39.19;101929.78;5067277;28;19941;-72
2023/06/16 07:24:36;;;;;;;;;;;;;;;26.73;39.34;101922.63;5067240;28;20374;-72
2023/06/16 07:27:02;;;;;;;;;;;;;;;26.73;39.26;101924.53;5058218;28;19964;-73
2023/06/16 07:29:27;;;;;;;;;;;;;;;26.72;39.31;101926.41;5061027;28;19920;-72
2023/06/16 07:31:52;;;;;;;;;;;;;;;26.72;39.31;101918.22;5052441;28;19913;-73
2023/06/16 07:34:18;;;;;;;;;;;;;;;26.72;39.08;101920.97;5064092;28;19912;-72
2023/06/16 07:36:43;;;;;;;;;;;;;;;26.72;39.29;101922.81;5049512;28;19948;-72
2023/06/16 07:39:08;;;;;;;;;;;;;;;26.72;39.15;101923.69;5059196;28;19913;-72
2023/06/16 07:41:33;;;;;;;;;;;;;;;26.72;39.36;101917.34;5071411;28;19921;-72
2023/06/16 07:43:59;;;;;;;;;;;;;;;26.71;39.11;101916.53;5061592;28;20365;-72
2023/06/16 07:46:24;;;;;;;;;;;;;;;26.69;39.41;101913.16;5062352;28;19917;-72
2023/06/16 07:48:49;;;;;;;;;;;;;;;26.70;39.28;101920.28;5064665;28;19916;-72
2023/06/16 07:51:15;;;;;;;;;;;;;;;26.69;39.38;101924.06;5069408;28;19944;-72
2023/06/16 07:53:42;;;;;;;;;;;;;;;26.70;39.28;101916.72;5042274;28;19919;-73
2023/06/16 07:56:07;;;;;;;;;;;;;;;26.69;39.40;101923.22;5057697;28;19927;-71
2023/06/16 07:58:32;;;;;;;;;;;;;;;26.69;39.35;101928.69;5046071;28;20551;-71
2023/06/16 08:00:58;;;;;;;;;;;;;;;26.69;39.36;101923.22;5054528;28;20323;-73
2023/06/16 08:03:23;;;;;;;;;;;;;;;26.68;39.28;101933.31;5071311;28;19913;-72
2023/06/16 08:05:48;;;;;;;;;;;;;;;26.68;39.36;101919.66;5055723;28;19913;-72
2023/06/16 08:08:13;;;;;;;;;;;;;;;26.67;39.47;101918.78;5052934;28;19966;-72
2023/06/16 08:10:39;;;;;;;;;;;;;;;26.69;39.41;101917.78;5065166;28;19924;-73
2023/06/16 08:13:04;;;;;;;;;;;;;;;26.68;39.32;101914.22;5067377;28;20273;-73
2023/06/16 08:15:29;;;;;;;;;;;;;;;26.68;39.42;101916.94;5066089;28;20382;-73
2023/06/16 08:17:54;;;;;;;;;;;;;;;26.67;39.25;101913.34;5069823;28;19917;-72
2023/06/16 08:20:20;;;;;;;;;;;;;;;26.67;39.46;101910.59;5058684;28;19917;-72
2023/06/16 08:22:45;;;;;;;;;;;;;;;26.67;39.53;101909.78;5065819;28;19921;-73
2023/06/16 08:25:10;;;;;;;;;;;;;;;26.68;39.46;101908.75;5066257;28;19913;-73
2023/06/16 08:27:36;;;;;;;;;;;;;;;26.67;39.39;101907.88;5055793;28;19976;-73
2023/06/16 08:30:01;;;;;;;;;;;;;;;26.68;39.48;101903.28;5059458;28;19917;-71
2023/06/16 08:32:26;;;;;;;;;;;;;;;26.66;39.30;101898.00;5060492;28;19917;-73
2023/06/16 08:34:51;;;;;;;;;;;;;;;26.67;39.56;101898.84;5067655;28;19912;-72
2023/06/16 08:37:17;;;;;;;;;;;;;;;26.67;39.35;101894.25;5066506;28;19921;-72
2023/06/16 08:39:43;;;;;;;;;;;;;;;26.67;39.45;101896.13;5063601;28;19959;-72
2023/06/16 08:42:08;;;;;;;;;;;;;;;26.67;39.52;101896.13;5063403;28;19939;-72
2023/06/16 08:44:33;;;;;;;;;;;;;;;26.66;39.35;101892.56;5062057;28;19920;-72
2023/06/16 08:46:58;;;;;;;;;;;;;;;26.66;39.55;101894.44;5045303;28;19935;-73
2023/06/16 08:49:24;;;;;;;;;;;;;;;26.66;39.39;101880.81;5044266;28;19956;-72
2023/06/16 08:51:50;;;;;;;;;;;;;;;26.67;39.34;101887.94;5070064;28;19936;-72
2023/06/16 08:54:16;;;;;;;;;;;;;;;26.67;39.56;101890.66;5053944;28;19956;-72
2023/06/16 08:56:42;;;;;;;;;;;;;;;26.66;39.41;101889.84;5074087;28;19913;-72
2023/06/16 08:59:08;;;;;;;;;;;;;;;26.66;39.51;101881.66;5065037;28;19940;-73
2023/06/16 09:01:33;;;;;;;;;;;;;;;26.66;39.50;101878.91;5044631;28;19923;-73
2023/06/16 09:03:58;;;;;;;;;;;;;;;26.67;39.40;101882.50;5068834;28;20337;-72
2023/06/16 09:06:25;;;;;;;;;;;;;;;26.67;39.41;101877.88;5058401;28;19912;-73
2023/06/16 09:08:50;;;;;;;;;;;;;;;26.66;39.66;101880.81;5065466;28;19920;-73
2023/06/16 09:11:23;;;;;;;;;;;;;;;26.67;39.42;101885.22;5064225;28;20404;-73
2023/06/16 09:13:48;;;;;;;;;;;;;;;26.67;39.46;101883.31;5064812;28;19914;-72
2023/06/16 09:16:16;;;;;;;;;;;;;;;26.67;39.53;101883.31;5063546;28;19921;-72
2023/06/16 09:18:44;;;;;;;;;;;;;;;26.67;39.46;101880.59;5072492;28;20014;-72
2023/06/16 09:21:11;;;;;;;;;;;;;;;26.67;39.54;101882.50;5055465;28;19976;-72
2023/06/16 09:23:36;;;;;;;;;;;;;;;26.67;39.46;101883.31;5072313;28;19923;-74
2023/06/16 09:26:08;;;;;;;;;;;;;;;26.67;39.57;101883.31;5064370;28;19980;-72
2023/06/16 09:28:34;;;;;;;;;;;;;;;26.67;39.52;101882.50;5057889;28;19921;-72
2023/06/16 09:31:00;;;;;;;;;;;;;;;26.69;39.44;101882.31;5070442;28;19912;-73
2023/06/16 09:33:29;;;;;;;;;;;;;;;26.69;39.32;101879.59;5059233;28;19913;-73
2023/06/16 09:35:54;;;;;;;;;;;;;;;26.69;39.33;101874.97;5064789;28;19913;-73
2023/06/16 09:38:19;;;;;;;;;;;;;;;26.69;39.46;101880.41;5061931;28;19913;-73
2023/06/16 09:40:44;;;;;;;;;;;;;;;26.69;39.38;101880.41;5048373;28;19913;-73
2023/06/16 09:43:11;;;;;;;;;;;;;;;26.70;39.56;101887.56;5043907;28;19920;-73
2023/06/16 09:45:36;;;;;;;;;;;;;;;26.70;39.51;101881.25;5051974;28;19913;-72
2023/06/16 09:48:02;;;;;;;;;;;;;;;26.71;39.55;101885.66;5057473;28;19943;-72
2023/06/16 09:50:30;;;;;;;;;;;;;;;26.70;39.40;101879.38;5036888;28;19921;-72
2023/06/16 09:52:56;;;;;;;;;;;;;;;26.71;39.64;101881.06;5066532;28;19951;-72
2023/06/16 09:55:26;;;;;;;;;;;;;;;26.71;39.52;101880.22;5054594;28;19924;-71
2023/06/16 09:57:51;;;;;;;;;;;;;;;26.71;39.55;101875.59;5074605;28;19916;-71
2023/06/16 10:00:16;;;;;;;;;;;;;;;26.72;39.54;101877.31;5056495;28;20259;-72
2023/06/16 10:02:43;;;;;;;;;;;;;;;26.72;39.38;101882.75;5064705;28;19921;-73
2023/06/16 10:05:14;;;;;;;;;;;;;;;26.73;39.61;101873.53;5064829;28;19916;-73
2023/06/16 10:07:39;;;;;;;;;;;;;;;26.72;39.40;101871.84;5048347;28;19916;-72
2023/06/16 10:10:08;;;;;;;;;;;;;;;26.74;39.56;101875.22;5045818;28;19967;-72
2023/06/16 10:12:33;;;;;;;;;;;;;;;26.74;39.60;101871.63;5049779;28;19920;-72
2023/06/16 10:15:00;;;;;;;;;;;;;;;26.74;39.75;101869.75;5060122;28;19925;-72
2023/06/16 10:17:26;;;;;;;;;;;;;;;26.75;39.56;101863.25;5064370;28;19917;-72
2023/06/16 10:19:51;;;;;;;;;;;;;;;26.75;39.51;101870.59;5065878;28;19914;-72
2023/06/16 10:22:16;;;;;;;;;;;;;;;26.76;39.65;101867.69;5051089;28;19921;-72
2023/06/16 10:24:42;;;;;;;;;;;;;;;26.77;39.69;101868.53;5072173;28;19912;-73
2023/06/16 10:27:08;;;;;;;;;;;;;;;26.29;39.49;101789.19;5039066;28;19924;-72
2023/06/16 10:29:33;;;;;;;;;;;;;;;26.78;39.67;101864.75;5063233;28;19966;-73
2023/06/16 10:32:10;;;;;;;;;;;;;;;26.78;39.70;101868.31;5051569;28;20004;-72
2023/06/16 10:34:35;;;;;;;;;;;;;;;26.79;39.53;101866.44;5047151;28;19968;-73
2023/06/16 10:37:00;;;;;;;;;;;;;;;26.79;39.82;101859.09;5061991;28;19920;-72
2023/06/16 10:39:25;;;;;;;;;;;;;;;26.80;39.64;101863.50;5065340;28;19921;-72
2023/06/16 10:41:52;;;;;;;;;;;;;;;26.80;39.65;101849.00;5044866;28;19971;-72
2023/06/16 10:44:30;;;;;;;;;;;;;;;26.81;39.76;101854.28;5042157;28;19917;-72
2023/06/16 10:47:04;;;;;;;;;;;;;;;26.82;39.81;101849.66;5069133;28;19967;-73
2023/06/16 10:49:29;;;;;;;;;;;;;;;26.82;39.57;101850.50;5053629;28;20011;-73
2023/06/16 10:51:56;;;;;;;;;;;;;;;26.83;39.65;101852.19;5075481;28;19913;-72
2023/06/16 10:54:37;;;;;;;;;;;;;;;26.85;39.80;101852.84;5059444;28;19913;-72
2023/06/16 10:57:06;;;;;;;;;;;;;;;26.87;39.75;101855.38;5062482;28;19917;-72
2023/06/16 10:59:50;;;;;;;;;;;;;;;26.88;39.65;101852.44;5062146;28;19960;-72
2023/06/16 11:02:29;;;;;;;;;;;;;;;26.89;39.84;101851.41;5049783;28;19921;-73
2023/06/16 11:05:10;;;;;;;;;;;;;;;26.92;39.82;101855.59;5052122;28;19984;-73
2023/06/16 11:07:48;;;;;;;;;;;;;;;26.93;39.74;101846.38;5049956;28;19913;-73
2023/06/16 11:10:17;;;;;;;;;;;;;;;26.95;39.81;101846.19;5063409;28;20321;-73
2023/06/16 11:12:42;;;;;;;;;;;;;;;26.96;39.82;101839.69;5072135;28;19923;-73
2023/06/16 11:15:07;;;;;;;;;;;;;;;26.96;39.65;101835.06;5065964;28;20445;-72
2023/06/16 11:17:33;;;;;;;;;;;;;;;26.99;39.95;101839.28;5045694;28;19923;-73
2023/06/16 11:19:59;;;;;;;;;;;;;;;27.00;39.67;101833.63;5072097;28;19919;-73
2023/06/16 11:22:28;;;;;;;;;;;;;;;27.01;39.42;101846.22;5037655;28;19917;-72
2023/06/16 11:24:53;;;;;;;;;;;;;;;27.02;39.53;101842.47;5073619;28;19916;-73
2023/06/16 11:27:18;;;;;;;;;;;;;;;27.04;39.41;101836.78;5065355;28;19999;-73
2023/06/16 11:29:43;;;;;;;;;;;;;;;27.06;39.58;101840.16;5046619;28;19924;-73
2023/06/16 11:32:09;;;;;;;;;;;;;;;27.07;39.53;101839.97;5067891;28;19988;-71
2023/06/16 11:34:35;;;;;;;;;;;;;;;27.09;39.39;101840.63;5053300;28;19920;-72
2023/06/16 11:37:00;;;;;;;;;;;;;;;27.10;39.42;101839.63;5059180;28;20000;-73
2023/06/16 11:39:25;;;;;;;;;;;;;;;27.12;39.72;101848.44;5068524;28;19949;-72
2023/06/16 11:41:53;;;;;;;;;;;;;;;27.14;39.48;101842.75;5067628;28;20385;-73
2023/06/16 11:44:18;;;;;;;;;;;;;;;27.15;39.57;101839.84;5057505;28;19920;-72
2023/06/16 11:46:44;;;;;;;;;;;;;;;27.17;39.71;101840.47;5076318;28;19913;-72
2023/06/16 11:49:10;;;;;;;;;;;;;;;27.19;39.37;101843.03;5042450;28;19959;-73
2023/06/16 11:51:35;;;;;;;;;;;;;;;27.23;39.46;101840.69;5051212;28;19980;-73
2023/06/16 11:54:01;;;;;;;;;;;;;;;27.23;39.25;101833.38;5067864;28;20385;-73
2023/06/16 11:56:27;;;;;;;;;;;;;;;27.27;39.19;101844.72;5051185;28;19936;-73
2023/06/16 11:58:53;;;;;;;;;;;;;;;27.29;39.38;101838.03;5068532;28;19916;-72
2023/06/16 12:01:18;;;;;;;;;;;;;;;27.31;39.25;101830.47;5063953;28;19975;-72
2023/06/16 12:03:44;;;;;;;;;;;;;;;27.33;39.35;101833.00;5046262;28;20275;-72
2023/06/16 12:06:10;;;;;;;;;;;;;;;27.36;39.22;101827.97;5045928;28;19917;-72
2023/06/16 12:08:35;;;;;;;;;;;;;;;27.38;39.43;101828.59;5052482;28;19917;-73
2023/06/16 12:11:01;;;;;;;;;;;;;;;27.40;39.43;101825.69;5056845;28;19913;-73
2023/06/16 12:13:26;;;;;;;;;;;;;;;27.42;39.15;101824.44;5055736;28;19913;-73
2023/06/16 12:15:51;;;;;;;;;;;;;;;27.45;39.35;101820.47;5059975;28;19926;-73
2023/06/16 12:18:16;;;;;;;;;;;;;;;27.47;39.43;101823.81;5040065;28;19986;-72
2023/06/16 12:20:41;;;;;;;;;;;;;;;27.49;39.25;101819.00;5049486;28;20019;-72
2023/06/16 12:23:10;;;;;;;;;;;;;;;27.51;39.22;101819.63;5039884;28;19985;-72
2023/06/16 12:25:37;;;;;;;;;;;;;;;27.53;39.11;101816.72;5035017;28;22421;-73
2023/06/16 12:28:03;;;;;;;;;;;;;;;27.55;39.31;101818.16;5042772;28;19917;-73
2023/06/16 12:30:32;;;;;;;;;;;;;;;27.58;39.20;101822.41;5045857;28;19944;-73